Abington, Pennsylvania
Current Conditions -  °F | °C
As of 3:54 AM on Saturday 25 Oct 2014 (Local Time) from KPNE Reporting Station
Clear Clear  
Wind Chill: 48°   Ceiling: Unl
Heat Index: 48°   Visibility: 10mi
Dew Point: 33°   Wind: 3mph
Humidity: 56%   Direction: 270°W
Pressure: 29.91"   Gusts: NA
Location:  40.12°N, 75.12°W
Report Text: KPNE 250754Z 27003KT 10SM CLR 09/01 A2991 RMK AO2 SLP128 T00890006
Loading
Personal Weather Stations






























Interactive Weather Map New forecast layout! Learn more

10-Day Weather Forecast

Advertisements
Track Severe Weather on mobile